Time;durP1;ratioP1;P1;durP2;ratioP2;P2;SDS_P1;SDS_P2;PMS_P1;PMS_P2;Temp;Humidity;BMP_temperature;BMP_pressure;BME280_temperature;BME280_humidity;BME280_pressure;Samples;Min_cycle;Max_cycle;Signal;HPM_P1;HPM_P2
2022/11/07 00:01:49;;;;;;;7.13;5.97;;;10.70;99.90;;;;;;5071615;28;20475;-75
2022/11/07 00:04:17;;;;;;;11.47;7.33;;;10.70;99.90;;;;;;5072825;28;20524;-75
2022/11/07 00:06:45;;;;;;;8.50;6.63;;;10.60;99.90;;;;;;5073271;28;20445;-73
2022/11/07 00:09:13;;;;;;;9.50;7.77;;;10.70;99.90;;;;;;5073023;28;20534;-74
2022/11/07 00:11:42;;;;;;;8.57;7.77;;;10.70;99.90;;;;;;5073343;28;20539;-75
2022/11/07 00:14:12;;;;;;;7.60;6.80;;;10.70;99.90;;;;;;5072330;28;20440;-74
2022/11/07 00:16:40;;;;;;;8.83;6.97;;;10.70;99.90;;;;;;5072768;28;20432;-74
2022/11/07 00:19:08;;;;;;;7.80;7.10;;;10.70;99.90;;;;;;5072597;28;21015;-75
2022/11/07 00:21:37;;;;;;;7.80;7.00;;;10.70;99.90;;;;;;5071241;28;20994;-75
2022/11/07 00:24:06;;;;;;;8.83;7.80;;;10.70;99.90;;;;;;5072594;28;20429;-74
2022/11/07 00:26:34;;;;;;;9.40;8.27;;;10.80;99.90;;;;;;5072870;28;20449;-74
2022/11/07 00:29:04;;;;;;;7.50;6.80;;;10.80;99.90;;;;;;5072019;28;20468;-74
2022/11/07 00:31:32;;;;;;;9.03;8.00;;;10.80;99.90;;;;;;5076130;28;21035;-74
2022/11/07 00:34:00;;;;;;;8.70;7.37;;;10.80;99.90;;;;;;5076109;28;20491;-74
2022/11/07 00:36:29;;;;;;;8.30;7.27;;;10.80;99.90;;;;;;5076177;28;20487;-74
2022/11/07 00:38:57;;;;;;;7.77;7.03;;;10.80;99.90;;;;;;5074740;28;20441;-74
2022/11/07 00:41:25;;;;;;;8.97;7.30;;;10.80;99.90;;;;;;5076255;28;20544;-74
2022/11/07 00:43:53;;;;;;;7.77;6.97;;;10.90;99.90;;;;;;5074822;28;20444;-74
2022/11/07 00:46:23;;;;;;;7.53;6.70;;;10.90;99.90;;;;;;5076233;28;20467;-74
2022/11/07 00:48:51;;;;;;;7.53;6.73;;;10.90;99.90;;;;;;5076096;28;20552;-74
2022/11/07 00:51:22;;;;;;;9.33;7.40;;;10.90;99.90;;;;;;5074536;28;20854;-75
2022/11/07 00:53:50;;;;;;;7.33;6.70;;;10.90;99.90;;;;;;5076193;28;20774;-74
2022/11/07 00:56:21;;;;;;;8.20;6.27;;;11.00;99.90;;;;;;5076044;28;20467;-74
2022/11/07 00:58:53;;;;;;;6.83;5.80;;;11.00;99.90;;;;;;5074455;28;20441;-74
2022/11/07 01:01:24;;;;;;;7.27;6.10;;;11.00;99.90;;;;;;5075019;28;20433;-75
2022/11/07 01:06:40;;;;;;;7.50;6.40;;;11.00;99.90;;;;;;5075787;28;20419;-74
2022/11/07 01:09:10;;;;;;;10.90;7.30;;;11.00;99.90;;;;;;5075527;28;20577;-74
2022/11/07 01:11:39;;;;;;;6.73;6.13;;;11.00;99.90;;;;;;5075763;28;20499;-74
2022/11/07 01:14:07;;;;;;;7.90;6.30;;;11.00;99.90;;;;;;5075570;28;20444;-74
2022/11/07 01:16:38;;;;;;;6.77;6.03;;;11.00;99.90;;;;;;5075330;28;20957;-74
2022/11/07 01:19:06;;;;;;;8.30;6.87;;;11.10;99.90;;;;;;5075443;28;20895;-73
2022/11/07 01:21:36;;;;;;;7.40;6.00;;;11.10;99.90;;;;;;5073929;28;20464;-73
2022/11/07 01:24:06;;;;;;;7.20;5.63;;;11.10;99.90;;;;;;5075503;28;20433;-72
2022/11/07 01:26:34;;;;;;;6.83;6.20;;;11.10;99.90;;;;;;5075421;28;20471;-72
2022/11/07 01:29:02;;;;;;;6.70;5.70;;;11.10;99.90;;;;;;5075311;28;20810;-72
2022/11/07 01:31:31;;;;;;;8.80;5.90;;;11.20;99.90;;;;;;5075012;28;20453;-72
2022/11/07 01:34:00;;;;;;;6.83;5.73;;;11.20;99.90;;;;;;5075317;28;20441;-72
2022/11/07 01:36:28;;;;;;;6.60;5.37;;;11.20;99.90;;;;;;5075054;28;20438;-72
2022/11/07 01:38:56;;;;;;;6.87;5.37;;;11.20;99.90;;;;;;5073574;28;20518;-72
2022/11/07 01:41:27;;;;;;;6.10;5.27;;;11.30;99.90;;;;;;5074846;28;20441;-73
2022/11/07 01:44:00;;;;;;;7.77;4.93;;;11.20;99.90;;;;;;5075248;28;20913;-73
2022/11/07 01:46:30;;;;;;;5.40;4.90;;;11.30;99.90;;;;;;5074872;28;20421;-73
2022/11/07 01:49:05;;;;;;;7.43;4.97;;;11.30;99.90;;;;;;5074868;28;20457;-72
2022/11/07 01:51:39;;;;;;;7.00;4.70;;;11.30;99.90;;;;;;5075080;28;20552;-72
2022/11/07 01:54:07;;;;;;;6.87;5.03;;;11.30;99.90;;;;;;5073615;28;20483;-72
2022/11/07 01:56:39;;;;;;;11.67;5.70;;;11.40;99.90;;;;;;5073413;28;20463;-72
2022/11/07 01:59:11;;;;;;;6.70;4.80;;;11.40;99.90;;;;;;5074857;28;20418;-72
2022/11/07 02:01:39;;;;;;;9.20;5.13;;;11.40;99.90;;;;;;5075768;28;20857;-73
2022/11/07 02:04:10;;;;;;;6.30;5.10;;;11.40;99.90;;;;;;5075345;28;20461;-72
2022/11/07 02:06:43;;;;;;;5.83;4.57;;;11.40;99.90;;;;;;5075187;28;20417;-72
2022/11/07 02:09:11;;;;;;;7.00;4.83;;;11.50;99.90;;;;;;5074552;28;20457;-72
2022/11/07 02:11:39;;;;;;;7.10;5.17;;;11.50;99.90;;;;;;5073089;28;20511;-72
2022/11/07 02:14:07;;;;;;;7.57;4.47;;;11.50;99.90;;;;;;5073107;28;20449;-74
2022/11/07 02:16:36;;;;;;;7.27;4.47;;;11.50;99.90;;;;;;5074243;28;20441;-74
2022/11/07 02:19:08;;;;;;;5.83;4.10;;;11.50;99.90;;;;;;5074071;28;20439;-74
2022/11/07 02:21:44;;;;;;;4.60;3.73;;;11.50;99.90;;;;;;5074047;28;20472;-74
2022/11/07 02:24:25;;;;;;;7.90;4.10;;;11.60;99.90;;;;;;5072810;28;20445;-74
2022/11/07 02:26:54;;;;;;;6.23;4.50;;;11.60;99.90;;;;;;5074266;28;20428;-74
2022/11/07 02:29:24;;;;;;;5.77;3.77;;;11.60;99.90;;;;;;5073870;28;20468;-74
2022/11/07 02:32:01;;;;;;;7.77;4.03;;;11.60;99.90;;;;;;5074174;28;20453;-74
2022/11/07 02:34:29;;;;;;;7.83;4.20;;;11.60;99.90;;;;;;5072655;28;20448;-74
2022/11/07 02:36:58;;;;;;;5.53;3.97;;;11.60;99.90;;;;;;5072501;28;20444;-75
2022/11/07 02:39:29;;;;;;;6.83;4.00;;;11.60;99.90;;;;;;5073841;28;21005;-74
2022/11/07 02:41:59;;;;;;;5.23;3.93;;;11.60;99.90;;;;;;5072372;28;20511;-74
2022/11/07 02:44:30;;;;;;;5.80;3.47;;;11.60;99.90;;;;;;5072558;28;20441;-74
2022/11/07 02:46:58;;;;;;;5.77;3.67;;;11.60;99.90;;;;;;5073886;28;20421;-75
2022/11/07 02:49:27;;;;;;;10.83;4.40;;;11.60;99.90;;;;;;5074051;28;20468;-75
2022/11/07 02:51:55;;;;;;;8.43;4.57;;;11.60;99.90;;;;;;5073233;28;20461;-74
2022/11/07 02:54:23;;;;;;;6.73;3.73;;;11.60;99.90;;;;;;5073820;28;20483;-74
2022/11/07 02:56:52;;;;;;;6.70;3.63;;;11.60;99.90;;;;;;5072561;28;20872;-74
2022/11/07 02:59:20;;;;;;;9.10;3.97;;;11.60;99.90;;;;;;5072374;28;20972;-74
2022/11/07 03:01:53;;;;;;;9.00;4.30;;;11.60;99.90;;;;;;5072288;28;20472;-74
2022/11/07 03:04:22;;;;;;;5.90;3.63;;;11.60;99.90;;;;;;5073516;28;20441;-75
2022/11/07 03:06:51;;;;;;;7.60;3.50;;;11.60;99.90;;;;;;5073618;28;20456;-74
2022/11/07 03:09:19;;;;;;;8.80;4.40;;;11.60;99.90;;;;;;5073617;28;20469;-74
2022/11/07 03:11:47;;;;;;;6.60;3.67;;;11.60;99.90;;;;;;5073673;28;20457;-74
2022/11/07 03:14:16;;;;;;;10.27;4.10;;;11.60;99.90;;;;;;5073668;28;20479;-74
2022/11/07 03:16:45;;;;;;;5.57;3.70;;;11.60;99.90;;;;;;5073620;28;20429;-75
2022/11/07 03:19:13;;;;;;;5.13;3.63;;;11.60;99.90;;;;;;5072207;28;20803;-75
2022/11/07 03:21:41;;;;;;;6.07;3.50;;;11.60;99.90;;;;;;5073590;28;20519;-75
2022/11/07 03:24:09;;;;;;;7.00;3.77;;;11.60;99.90;;;;;;5073930;28;20445;-75
2022/11/07 03:26:37;;;;;;;8.33;3.67;;;11.60;99.90;;;;;;5073691;28;20433;-75
2022/11/07 03:29:05;;;;;;;6.70;3.57;;;11.60;99.90;;;;;;5073360;28;20468;-74
2022/11/07 03:31:35;;;;;;;7.63;3.90;;;11.60;99.90;;;;;;5073436;28;20887;-75
2022/11/07 03:34:03;;;;;;;5.67;3.83;;;11.60;99.90;;;;;;5073238;28;20467;-75
2022/11/07 03:36:32;;;;;;;7.50;3.57;;;11.60;99.90;;;;;;5071910;28;20449;-74
2022/11/07 03:39:00;;;;;;;7.27;3.80;;;11.70;99.90;;;;;;5073327;28;20770;-74
2022/11/07 03:41:28;;;;;;;7.63;3.20;;;11.70;99.90;;;;;;5073114;28;20491;-74
2022/11/07 03:43:57;;;;;;;5.63;3.57;;;11.70;99.90;;;;;;5073099;28;20515;-74
2022/11/07 03:46:25;;;;;;;6.13;3.20;;;11.70;99.90;;;;;;5073023;28;20429;-74
2022/11/07 03:48:54;;;;;;;7.20;4.00;;;11.70;99.90;;;;;;5073040;28;20848;-74
2022/11/07 03:51:22;;;;;;;7.43;4.00;;;11.70;99.90;;;;;;5072843;28;20938;-75
2022/11/07 03:53:50;;;;;;;7.57;3.40;;;11.70;99.90;;;;;;5072883;28;21056;-74
2022/11/07 03:56:18;;;;;;;7.30;3.53;;;11.70;99.90;;;;;;5071644;28;20499;-74
2022/11/07 03:58:46;;;;;;;8.10;3.50;;;11.70;99.90;;;;;;5071550;28;20444;-74
2022/11/07 04:01:14;;;;;;;6.93;3.47;;;11.70;99.90;;;;;;5072796;28;20995;-75
2022/11/07 04:03:42;;;;;;;6.50;3.43;;;11.70;99.90;;;;;;5071813;28;20849;-74
2022/11/07 04:06:12;;;;;;;8.10;3.70;;;11.70;99.90;;;;;;5077248;28;20451;-74
2022/11/07 04:08:40;;;;;;;6.43;3.60;;;11.70;99.90;;;;;;5075351;28;20449;-75
2022/11/07 04:17:17;;;;;;;7.70;3.43;;;11.70;99.90;;;;;;5076466;28;20518;-74
2022/11/07 04:19:29;;;;;;;9.03;4.10;;;11.60;99.90;;;;;;5076482;28;20416;-72
2022/11/07 04:21:58;;;;;;;9.87;4.30;;;11.60;99.90;;;;;;5074858;28;20590;-74
2022/11/07 04:24:26;;;;;;;8.43;3.80;;;11.60;99.90;;;;;;5076263;28;20806;-74
2022/11/07 04:29:40;;;;;;;8.17;4.73;;;11.60;99.90;;;;;;5076143;28;21060;-74
2022/11/07 04:32:08;;;;;;;7.20;3.97;;;11.60;99.90;;;;;;5076134;28;20448;-74
2022/11/07 04:34:36;;;;;;;8.33;3.70;;;11.70;99.90;;;;;;5076186;28;20918;-74
2022/11/07 04:37:05;;;;;;;6.53;3.60;;;11.70;99.90;;;;;;5075872;28;20794;-74
2022/11/07 04:39:33;;;;;;;8.67;3.73;;;11.70;99.90;;;;;;5076089;28;20437;-74
2022/11/07 04:42:01;;;;;;;9.37;3.70;;;11.70;99.90;;;;;;5074712;28;20465;-74
2022/11/07 04:44:29;;;;;;;7.90;3.57;;;11.70;99.90;;;;;;5074818;28;20471;-75
2022/11/07 04:46:57;;;;;;;8.00;3.90;;;11.70;99.90;;;;;;5074736;28;20954;-74
2022/11/07 04:49:25;;;;;;;7.87;3.57;;;11.70;99.90;;;;;;5074519;28;20491;-74
2022/11/07 04:51:56;;;;;;;9.37;5.03;;;11.80;99.90;;;;;;5076015;28;20983;-74
2022/11/07 04:54:25;;;;;;;7.73;3.87;;;11.80;99.90;;;;;;5076152;28;20447;-74
2022/11/07 04:56:53;;;;;;;9.83;3.70;;;11.80;99.90;;;;;;5075713;28;20433;-74
2022/11/07 04:59:21;;;;;;;6.90;3.77;;;11.80;99.90;;;;;;5076337;28;20448;-74
2022/11/07 05:01:49;;;;;;;8.63;4.03;;;11.80;99.90;;;;;;5075861;28;20515;-75
2022/11/07 05:04:17;;;;;;;6.33;3.80;;;11.80;99.90;;;;;;5074254;28;20552;-75
2022/11/07 05:06:45;;;;;;;9.53;4.60;;;11.80;99.90;;;;;;5074133;28;20946;-74
2022/11/07 05:09:16;;;;;;;6.30;3.33;;;11.80;99.90;;;;;;5076091;28;20434;-74
2022/11/07 05:11:46;;;;;;;8.13;3.73;;;11.80;99.90;;;;;;5075751;28;20481;-75
2022/11/07 05:14:14;;;;;;;7.13;3.80;;;11.80;99.90;;;;;;5075776;28;20437;-75
2022/11/07 05:16:43;;;;;;;8.47;3.50;;;11.80;99.90;;;;;;5075087;28;20433;-75
2022/11/07 05:19:15;;;;;;;7.40;3.57;;;11.80;99.90;;;;;;5075724;28;20437;-74
2022/11/07 05:21:43;;;;;;;8.53;4.00;;;11.80;99.90;;;;;;5073794;28;20530;-74
2022/11/07 05:24:11;;;;;;;7.80;4.10;;;11.80;99.90;;;;;;5075270;28;20453;-74
2022/11/07 05:26:40;;;;;;;8.80;3.63;;;11.80;99.90;;;;;;5075222;28;20437;-74
2022/11/07 05:29:11;;;;;;;6.97;3.80;;;11.80;99.90;;;;;;5073947;28;20449;-74
2022/11/07 05:31:39;;;;;;;7.17;3.80;;;11.80;99.90;;;;;;5075122;28;20840;-74
2022/11/07 05:34:07;;;;;;;8.30;4.07;;;11.80;99.90;;;;;;5075134;28;20464;-75
2022/11/07 05:36:41;;;;;;;5.63;3.30;;;11.80;99.90;;;;;;5075047;28;20475;-75
2022/11/07 05:39:09;;;;;;;7.33;4.03;;;11.80;99.90;;;;;;5074947;28;21008;-74
2022/11/07 05:41:37;;;;;;;9.80;3.80;;;11.80;99.90;;;;;;5077321;28;20483;-74
2022/11/07 05:44:06;;;;;;;5.97;3.53;;;11.80;99.90;;;;;;5075509;28;20466;-74
2022/11/07 05:46:35;;;;;;;8.87;3.60;;;11.80;99.90;;;;;;5075603;28;20992;-74
2022/11/07 05:49:03;;;;;;;5.20;3.60;;;11.80;99.90;;;;;;5075462;28;20934;-74
2022/11/07 05:51:31;;;;;;;6.37;3.50;;;11.80;99.90;;;;;;5075465;28;20527;-74
2022/11/07 05:53:59;;;;;;;8.50;3.73;;;11.80;99.90;;;;;;5074860;28;20437;-74
2022/11/07 05:56:27;;;;;;;7.43;3.30;;;11.80;99.90;;;;;;5074894;28;20781;-74
2022/11/07 05:58:55;;;;;;;5.80;3.50;;;11.80;99.90;;;;;;5075084;28;20495;-75
2022/11/07 06:01:23;;;;;;;8.47;4.17;;;11.80;99.90;;;;;;5074862;28;20441;-74
2022/11/07 06:03:53;;;;;;;7.60;4.10;;;11.80;99.90;;;;;;5073258;28;20814;-74
2022/11/07 06:06:21;;;;;;;7.90;4.10;;;11.80;99.90;;;;;;5073262;28;20445;-75
2022/11/07 06:08:49;;;;;;;8.47;4.00;;;11.80;99.90;;;;;;5073039;28;20441;-74
2022/11/07 06:11:17;;;;;;;5.77;3.63;;;11.80;99.90;;;;;;5072895;28;20491;-74
2022/11/07 06:13:45;;;;;;;8.90;3.80;;;11.80;99.90;;;;;;5074629;28;20445;-74
2022/11/07 06:16:14;;;;;;;6.37;3.60;;;11.80;99.90;;;;;;5074282;28;20445;-75
2022/11/07 06:18:42;;;;;;;11.10;4.33;;;11.80;99.90;;;;;;5074704;28;20529;-75
2022/11/07 06:21:12;;;;;;;7.77;3.73;;;11.80;99.90;;;;;;5074123;28;20942;-75
2022/11/07 06:23:40;;;;;;;8.43;4.07;;;11.80;99.90;;;;;;5074304;28;20504;-75
2022/11/07 06:26:09;;;;;;;7.37;4.03;;;11.80;99.90;;;;;;5073881;28;20433;-75
2022/11/07 06:28:37;;;;;;;8.23;3.87;;;11.80;99.90;;;;;;5073631;28;20456;-75
2022/11/07 06:31:05;;;;;;;7.90;3.63;;;11.80;99.90;;;;;;5074071;28;20468;-74
2022/11/07 06:33:33;;;;;;;7.60;4.10;;;11.80;99.90;;;;;;5074103;28;20441;-74
2022/11/07 06:36:06;;;;;;;8.50;4.40;;;11.80;99.90;;;;;;5074032;28;20847;-75
2022/11/07 06:38:36;;;;;;;11.53;4.37;;;11.80;99.90;;;;;;5074122;28;20417;-75
2022/11/07 06:41:06;;;;;;;8.90;4.30;;;11.80;99.90;;;;;;5073744;28;20433;-75
2022/11/07 06:43:34;;;;;;;8.60;4.13;;;11.80;99.90;;;;;;5074147;28;20520;-75
2022/11/07 06:46:04;;;;;;;8.80;4.67;;;11.80;99.90;;;;;;5074056;28;20828;-75
2022/11/07 06:48:33;;;;;;;7.10;4.10;;;11.90;99.90;;;;;;5073831;28;20417;-75
2022/11/07 06:51:03;;;;;;;10.63;4.70;;;11.90;99.90;;;;;;5072406;28;20508;-75
2022/11/07 06:53:31;;;;;;;10.20;4.77;;;11.90;99.90;;;;;;5073595;28;20841;-75
2022/11/07 06:56:02;;;;;;;11.00;4.20;;;11.90;99.90;;;;;;5073954;28;20536;-75
2022/11/07 06:58:31;;;;;;;11.53;4.50;;;11.90;99.90;;;;;;5073772;28;20481;-73
2022/11/07 07:01:01;;;;;;;8.87;3.90;;;11.90;99.90;;;;;;5073365;28;20844;-73
2022/11/07 07:03:30;;;;;;;10.70;4.17;;;11.90;99.90;;;;;;5073528;28;21056;-75
2022/11/07 07:06:01;;;;;;;8.53;4.30;;;11.90;99.90;;;;;;5073369;28;20448;-75
2022/11/07 07:08:30;;;;;;;9.33;4.27;;;11.90;99.90;;;;;;5073792;28;20876;-74
2022/11/07 07:11:03;;;;;;;8.53;5.13;;;11.90;99.90;;;;;;5073321;28;20469;-76
2022/11/07 07:13:32;;;;;;;7.90;4.10;;;11.90;99.90;;;;;;5073650;28;20460;-75
2022/11/07 07:16:00;;;;;;;9.53;3.93;;;11.90;99.90;;;;;;5073359;28;20433;-75
2022/11/07 07:18:29;;;;;;;8.00;4.43;;;11.90;99.90;;;;;;5072078;28;20437;-75
2022/11/07 07:21:03;;;;;;;7.40;4.40;;;11.90;99.90;;;;;;5071890;28;20460;-76
2022/11/07 07:23:33;;;;;;;10.60;4.57;;;11.90;99.90;;;;;;5072081;28;20876;-75
2022/11/07 07:26:03;;;;;;;9.13;4.50;;;11.90;99.90;;;;;;5072148;28;20817;-74
2022/11/07 07:28:32;;;;;;;9.30;4.70;;;11.90;99.90;;;;;;5073389;28;20441;-75
2022/11/07 07:31:18;;;;;;;11.43;5.10;;;12.00;99.90;;;;;;5073136;28;20801;-75
2022/11/07 07:33:47;;;;;;;10.10;4.47;;;12.00;99.90;;;;;;5072110;28;20437;-75
2022/11/07 07:36:16;;;;;;;7.90;4.23;;;12.00;99.90;;;;;;5073270;28;20953;-75
2022/11/07 07:38:48;;;;;;;5.47;3.90;;;12.00;99.90;;;;;;5075689;28;20429;-75
2022/11/07 07:41:18;;;;;;;8.30;3.80;;;12.00;99.90;;;;;;5076401;28;20898;-75
2022/11/07 07:43:46;;;;;;;8.93;4.23;;;12.10;99.90;;;;;;5077604;28;20437;-75
2022/11/07 07:46:16;;;;;;;9.10;4.57;;;12.10;99.90;;;;;;5077676;28;20444;-75
2022/11/07 07:48:44;;;;;;;8.10;4.20;;;12.10;99.90;;;;;;5077497;28;20512;-75
2022/11/07 07:51:12;;;;;;;8.03;3.97;;;12.20;99.90;;;;;;5075704;28;20472;-74
2022/11/07 07:53:40;;;;;;;6.50;4.00;;;12.20;99.90;;;;;;5077230;28;20967;-75
2022/11/07 07:56:09;;;;;;;11.37;3.90;;;12.20;99.90;;;;;;5076069;28;20823;-75
2022/11/07 07:58:38;;;;;;;10.37;4.20;;;12.30;99.90;;;;;;5077294;28;20486;-75
2022/11/07 08:01:09;;;;;;;11.10;4.10;;;12.30;99.90;;;;;;5077302;28;20528;-74
2022/11/07 08:03:38;;;;;;;9.43;4.00;;;12.30;99.90;;;;;;5078830;28;20417;-72
2022/11/07 08:06:26;;;;;;;7.57;3.43;;;12.40;99.90;;;;;;5079242;28;20502;-75
2022/11/07 08:08:55;;;;;;;10.03;3.93;;;12.40;99.90;;;;;;5077877;28;20441;-75
2022/11/07 08:11:23;;;;;;;5.77;3.60;;;12.40;99.90;;;;;;5078252;28;20487;-75
2022/11/07 08:13:53;;;;;;;7.53;3.83;;;12.50;99.90;;;;;;5078677;28;20524;-75
2022/11/07 08:16:28;;;;;;;8.20;3.80;;;12.50;99.90;;;;;;5077770;28;20946;-75
2022/11/07 08:18:56;;;;;;;9.97;3.50;;;12.60;99.90;;;;;;5076992;28;20961;-75
2022/11/07 08:21:24;;;;;;;8.93;3.80;;;12.60;99.90;;;;;;5076938;28;20556;-74
2022/11/07 08:23:53;;;;;;;8.17;4.23;;;12.60;99.90;;;;;;5077006;28;20451;-75
2022/11/07 08:26:22;;;;;;;11.27;4.27;;;12.70;99.90;;;;;;5077572;28;20476;-75
2022/11/07 08:28:53;;;;;;;8.47;3.67;;;12.70;99.90;;;;;;5082999;28;20453;-75
2022/11/07 08:31:21;;;;;;;6.73;3.60;;;12.70;99.90;;;;;;5083813;28;20475;-75
2022/11/07 08:33:50;;;;;;;7.67;3.63;;;12.80;99.90;;;;;;5081465;28;20494;-75
2022/11/07 08:36:18;;;;;;;8.73;4.67;;;12.80;99.90;;;;;;5081811;28;20481;-74
2022/11/07 08:38:46;;;;;;;9.10;3.77;;;12.80;99.90;;;;;;5080296;28;20444;-74
2022/11/07 08:41:15;;;;;;;10.80;3.80;;;12.80;99.90;;;;;;5077203;28;20532;-75
2022/11/07 08:43:49;;;;;;;9.23;4.20;;;12.90;99.90;;;;;;5075588;28;20437;-75
2022/11/07 08:46:19;;;;;;;11.97;4.27;;;12.90;99.90;;;;;;5076636;28;20441;-76
2022/11/07 08:48:47;;;;;;;7.93;3.93;;;12.90;99.90;;;;;;5076768;28;20452;-75
2022/11/07 08:51:16;;;;;;;8.47;3.97;;;12.90;99.90;;;;;;5077669;28;20437;-74
2022/11/07 08:53:45;;;;;;;10.10;4.23;;;12.90;99.90;;;;;;5077553;28;20469;-75
2022/11/07 08:56:13;;;;;;;10.23;3.73;;;13.00;99.90;;;;;;5076799;28;20523;-75
2022/11/07 08:58:44;;;;;;;8.00;4.00;;;13.00;99.90;;;;;;5076539;28;20861;-75
2022/11/07 09:01:13;;;;;;;5.53;4.10;;;13.00;99.90;;;;;;5076422;28;20425;-74
2022/11/07 09:03:43;;;;;;;7.07;3.93;;;13.00;99.90;;;;;;5076776;28;20783;-75
2022/11/07 09:06:20;;;;;;;11.10;5.30;;;13.00;99.90;;;;;;5076871;28;20429;-74
2022/11/07 09:08:48;;;;;;;9.87;4.60;;;13.00;99.90;;;;;;5076536;28;20449;-75
2022/11/07 09:11:17;;;;;;;10.40;5.10;;;13.00;99.90;;;;;;5074598;28;20857;-75
2022/11/07 09:13:46;;;;;;;11.07;4.90;;;13.00;99.90;;;;;;5074868;28;21013;-75
2022/11/07 09:16:17;;;;;;;8.20;4.97;;;13.10;99.90;;;;;;5076015;28;20802;-75
2022/11/07 09:18:48;;;;;;;13.00;5.60;;;13.10;99.90;;;;;;5076122;28;20430;-74
2022/11/07 09:21:16;;;;;;;13.73;5.47;;;13.10;99.90;;;;;;5075647;28;20449;-75
2022/11/07 09:23:50;;;;;;;10.27;4.47;;;13.10;99.90;;;;;;5076147;28;20433;-75
2022/11/07 09:26:18;;;;;;;14.57;6.37;;;13.10;99.90;;;;;;5075774;28;20441;-75
2022/11/07 09:28:46;;;;;;;10.07;4.53;;;13.10;99.90;;;;;;5074546;28;20445;-75
2022/11/07 09:31:20;;;;;;;12.37;5.23;;;13.20;99.90;;;;;;5075891;28;20973;-75
2022/11/07 09:33:50;;;;;;;7.40;4.37;;;13.20;99.90;;;;;;5074448;28;20985;-74
2022/11/07 09:36:18;;;;;;;10.07;4.83;;;13.20;99.90;;;;;;5075192;28;20448;-75
2022/11/07 09:38:46;;;;;;;12.20;4.23;;;13.20;99.90;;;;;;5075466;28;20471;-75
2022/11/07 09:41:32;;;;;;;7.93;4.40;;;13.20;99.90;;;;;;5074153;28;20490;-75
2022/11/07 09:44:22;;;;;;;9.60;4.63;;;13.30;99.90;;;;;;5074723;28;20445;-75
2022/11/07 09:47:01;;;;;;;10.80;5.00;;;13.30;99.90;;;;;;5075897;28;20417;-75
2022/11/07 09:49:36;;;;;;;10.17;4.87;;;13.30;99.90;;;;;;5076047;28;20441;-75
2022/11/07 09:52:11;;;;;;;12.97;4.77;;;13.30;99.90;;;;;;5075475;28;20448;-75
2022/11/07 09:54:44;;;;;;;13.50;4.87;;;13.30;99.90;;;;;;5073949;28;20432;-75
2022/11/07 09:57:17;;;;;;;9.03;4.50;;;13.30;99.90;;;;;;5075775;28;20781;-75
2022/11/07 09:59:49;;;;;;;11.37;4.80;;;13.30;99.90;;;;;;5075161;28;20421;-75
2022/11/07 10:02:20;;;;;;;10.30;5.67;;;13.30;99.90;;;;;;5072856;28;20469;-75
2022/11/07 10:04:56;;;;;;;7.10;4.50;;;13.30;99.90;;;;;;5073694;28;20871;-75
2022/11/07 10:07:35;;;;;;;11.07;4.90;;;13.30;99.90;;;;;;5075074;28;20448;-75
2022/11/07 10:10:10;;;;;;;7.43;4.23;;;13.30;99.90;;;;;;5075552;28;20790;-75
2022/11/07 10:12:58;;;;;;;6.43;4.70;;;13.30;99.90;;;;;;5075172;28;20475;-75
2022/11/07 10:15:33;;;;;;;10.50;5.20;;;13.30;99.90;;;;;;5074746;28;20445;-74
2022/11/07 10:18:07;;;;;;;9.83;5.70;;;13.30;99.90;;;;;;5075135;28;20429;-74
2022/11/07 10:20:55;;;;;;;10.10;4.20;;;13.40;99.90;;;;;;5074745;28;20417;-74
2022/11/07 10:23:58;;;;;;;7.83;5.00;;;13.40;99.90;;;;;;5074819;28;20437;-74
2022/11/07 10:26:28;;;;;;;12.07;5.17;;;13.40;99.90;;;;;;5075007;28;20429;-74
2022/11/07 10:29:00;;;;;;;11.77;5.70;;;13.40;99.90;;;;;;5074791;28;20437;-74
2022/11/07 10:31:35;;;;;;;10.80;4.80;;;13.40;99.90;;;;;;5075128;28;20457;-75
2022/11/07 10:34:11;;;;;;;8.17;4.97;;;13.50;99.90;;;;;;5075022;28;20460;-75
2022/11/07 10:36:40;;;;;;;8.27;4.40;;;13.50;99.90;;;;;;5073739;28;20441;-74
2022/11/07 10:39:15;;;;;;;11.80;4.70;;;13.50;99.90;;;;;;5074493;28;20472;-74
2022/11/07 10:41:48;;;;;;;9.97;4.60;;;13.60;99.90;;;;;;5074944;28;20468;-74
2022/11/07 10:44:22;;;;;;;10.40;4.70;;;13.60;99.90;;;;;;5074544;28;20426;-74
2022/11/07 10:46:50;;;;;;;11.87;5.07;;;13.60;99.90;;;;;;5073258;28;20432;-74
2022/11/07 10:49:23;;;;;;;8.50;4.67;;;13.70;99.90;;;;;;5074851;28;20440;-74
2022/11/07 10:51:54;;;;;;;9.13;5.37;;;13.70;99.90;;;;;;5074853;28;20468;-74
2022/11/07 10:54:27;;;;;;;6.80;4.10;;;13.80;99.90;;;;;;5073103;28;20461;-74
2022/11/07 10:57:02;;;;;;;8.20;4.53;;;13.80;99.90;;;;;;5073079;28;20452;-74
2022/11/07 10:59:32;;;;;;;7.90;4.10;;;13.80;99.90;;;;;;5074955;28;20424;-75
2022/11/07 11:02:16;;;;;;;8.77;4.10;;;13.90;99.90;;;;;;5074275;28;20464;-74
2022/11/07 11:04:48;;;;;;;7.50;3.80;;;13.90;99.90;;;;;;5074132;28;20437;-74
2022/11/07 11:07:19;;;;;;;7.63;4.20;;;14.00;99.90;;;;;;5074144;28;20440;-74
2022/11/07 11:09:57;;;;;;;10.27;4.87;;;14.00;99.90;;;;;;5074164;28;20949;-74
2022/11/07 11:12:27;;;;;;;12.13;4.03;;;14.00;99.90;;;;;;5073874;28;20463;-75
2022/11/07 11:15:09;;;;;;;11.30;4.40;;;14.10;99.90;;;;;;5074287;28;20471;-74
2022/11/07 11:17:38;;;;;;;10.17;5.13;;;14.00;99.90;;;;;;5074037;28;20797;-74
2022/11/07 11:20:08;;;;;;;8.30;3.80;;;14.00;99.90;;;;;;5073282;28;20930;-74
2022/11/07 11:22:42;;;;;;;6.83;3.97;;;14.10;99.90;;;;;;5073038;28;20469;-75
2022/11/07 11:25:18;;;;;;;8.37;4.03;;;14.10;99.90;;;;;;5072294;28;20528;-75
2022/11/07 11:27:49;;;;;;;10.10;4.47;;;14.10;99.90;;;;;;5073465;28;20519;-75
2022/11/07 11:30:20;;;;;;;10.20;3.93;;;14.10;99.90;;;;;;5072039;28;20436;-75
2022/11/07 11:32:53;;;;;;;13.40;4.63;;;14.10;99.90;;;;;;5073016;28;20469;-75
2022/11/07 11:35:34;;;;;;;9.23;3.70;;;14.10;99.90;;;;;;5073472;28;20425;-75
2022/11/07 11:38:16;;;;;;;13.30;3.73;;;14.00;99.90;;;;;;5071906;28;20445;-75
2022/11/07 11:40:48;;;;;;;9.20;3.83;;;14.10;99.90;;;;;;5073448;28;20549;-75
2022/11/07 11:43:21;;;;;;;10.50;4.07;;;14.10;99.90;;;;;;5073251;28;20519;-75
2022/11/07 11:46:05;;;;;;;7.47;4.27;;;14.10;99.90;;;;;;5073343;28;20435;-75
2022/11/07 11:48:39;;;;;;;8.50;3.40;;;14.10;99.90;;;;;;5073004;28;20474;-75
2022/11/07 11:51:14;;;;;;;9.20;3.50;;;14.10;99.90;;;;;;5073183;28;20433;-76
2022/11/07 11:53:44;;;;;;;10.10;3.83;;;14.10;99.90;;;;;;5073521;28;20539;-75
2022/11/07 11:56:26;;;;;;;9.13;3.40;;;14.10;99.90;;;;;;5072998;28;20429;-75
2022/11/07 11:59:09;;;;;;;7.87;3.80;;;14.20;99.90;;;;;;5072890;28;20417;-75
2022/11/07 12:01:46;;;;;;;10.37;3.93;;;14.20;99.90;;;;;;5073412;28;20536;-75
2022/11/07 12:04:36;;;;;;;13.03;4.43;;;14.20;99.90;;;;;;5073236;28;20523;-75
2022/11/07 12:07:16;;;;;;;13.00;4.40;;;14.20;99.90;;;;;;5073444;28;20421;-76
2022/11/07 12:09:50;;;;;;;8.30;3.60;;;14.20;99.90;;;;;;5073105;28;20429;-76
2022/11/07 12:12:27;;;;;;;9.33;4.33;;;14.10;99.90;;;;;;5072882;28;20460;-79
2022/11/07 12:15:16;;;;;;;11.60;4.30;;;14.10;99.90;;;;;;5072826;28;20464;-75
2022/11/07 12:17:49;;;;;;;10.87;4.63;;;14.10;99.90;;;;;;5073618;28;20414;-75
2022/11/07 12:20:24;;;;;;;6.10;3.50;;;14.10;99.90;;;;;;5072888;28;20421;-74
2022/11/07 12:23:05;;;;;;;11.60;3.53;;;14.10;99.90;;;;;;5072650;28;20879;-76
2022/11/07 12:25:40;;;;;;;8.70;3.40;;;14.10;99.90;;;;;;5074565;28;20422;-75
2022/11/07 12:28:26;;;;;;;9.93;3.93;;;14.10;99.90;;;;;;5076960;28;20417;-76
2022/11/07 12:31:04;;;;;;;8.80;4.20;;;14.20;99.90;;;;;;5076625;28;20417;-75
2022/11/07 12:33:40;;;;;;;8.83;4.40;;;14.20;99.90;;;;;;5076164;28;20448;-76
2022/11/07 12:36:17;;;;;;;10.67;4.10;;;14.20;99.90;;;;;;5076141;28;20433;-75
2022/11/07 12:39:12;;;;;;;7.90;3.20;;;14.20;99.90;;;;;;5074888;28;20444;-75
2022/11/07 12:41:51;;;;;;;10.73;3.53;;;14.30;99.90;;;;;;5076244;28;20455;-75
2022/11/07 12:44:34;;;;;;;7.40;3.30;;;14.30;99.90;;;;;;5074837;28;20455;-76
2022/11/07 12:47:10;;;;;;;7.00;3.60;;;14.40;99.90;;;;;;5074776;28;20950;-76
2022/11/07 12:49:54;;;;;;;9.60;3.40;;;14.40;99.90;;;;;;5076316;28;20417;-74
2022/11/07 12:52:39;;;;;;;8.13;3.23;;;14.40;99.90;;;;;;5074677;28;20472;-75
2022/11/07 12:55:19;;;;;;;13.43;2.90;;;14.40;99.90;;;;;;5076141;28;20499;-75
2022/11/07 12:57:52;;;;;;;9.93;3.50;;;14.40;99.90;;;;;;5075366;28;20441;-75
2022/11/07 13:00:23;;;;;;;9.03;3.20;;;14.40;99.90;;;;;;5074781;28;20806;-75
2022/11/07 13:03:11;;;;;;;7.83;3.07;;;14.40;99.90;;;;;;5075805;28;20448;-75
2022/11/07 13:05:58;;;;;;;8.10;3.70;;;14.40;99.90;;;;;;5076232;28;20445;-75
2022/11/07 13:08:33;;;;;;;9.00;3.33;;;14.40;99.90;;;;;;5075629;28;20964;-75
2022/11/07 13:11:09;;;;;;;7.83;3.30;;;14.40;99.90;;;;;;5075219;28;20460;-76
2022/11/07 13:13:51;;;;;;;7.93;2.80;;;14.40;99.90;;;;;;5075721;28;20425;-76
2022/11/07 13:16:25;;;;;;;7.03;3.20;;;14.40;99.90;;;;;;5074236;28;20437;-75
2022/11/07 13:18:53;;;;;;;7.60;2.80;;;14.50;99.90;;;;;;5074208;28;20441;-76